Time;durP1;ratioP1;P1;durP2;ratioP2;P2;SDS_P1;SDS_P2;PMS_P1;PMS_P2;Temp;Humidity;BMP_temperature;BMP_pressure;BME280_temperature;BME280_humidity;BME280_pressure;Samples;Min_cycle;Max_cycle;Signal;HPM_P1;HPM_P2
2024/04/14 07:20:01;;;;;;;4.70;2.13;;;;;;;17.97;nan;100818.75;4785090;29;20051;-87
2024/04/14 07:22:27;;;;;;;4.18;1.90;;;;;;;17.81;nan;100819.56;4782090;29;20150;-88
2024/04/14 07:24:53;;;;;;;3.70;1.88;;;;;;;17.96;nan;100833.06;4764198;30;20051;-88
2024/04/14 07:27:19;;;;;;;3.85;2.10;;;;;;;17.89;nan;100828.06;4748048;30;20093;-89
2024/04/14 07:29:45;;;;;;;3.03;1.52;;;;;;;18.20;nan;100822.97;4762484;30;20059;-87
2024/04/14 07:32:12;;;;;;;4.20;2.03;;;;;;;18.32;nan;100824.16;4751272;29;20235;-89
2024/04/14 07:34:38;;;;;;;3.42;1.80;;;;;;;18.42;nan;100820.09;4789527;29;20149;-88
2024/04/14 07:37:05;;;;;;;3.28;2.03;;;;;;;18.62;nan;100828.91;4798760;29;20087;-88
2024/04/14 07:39:31;;;;;;;3.88;1.90;;;;;;;18.53;nan;100836.47;4751444;29;20051;-88
2024/04/14 07:41:57;;;;;;;3.03;1.70;;;;;;;18.26;nan;100845.88;4766062;30;20525;-87
2024/04/14 07:44:23;;;;;;;5.70;1.58;;;;;;;17.67;nan;100854.94;4778909;30;20063;-89
2024/04/14 07:46:49;;;;;;;2.50;1.23;;;;;;;17.01;nan;100854.38;4780973;30;20132;-89
2024/04/14 07:49:15;;;;;;;1.90;1.20;;;;;;;17.19;nan;100852.69;4763093;30;20428;-89
2024/04/14 07:51:43;;;;;;;2.95;1.33;;;;;;;17.22;nan;100869.44;4761024;30;20070;-89
2024/04/14 07:54:09;;;;;;;1.52;1.08;;;;;;;17.08;nan;100858.53;4786364;29;20691;-90
2024/04/14 07:56:35;;;;;;;10.25;2.45;;;;;;;16.89;nan;100886.00;4741276;30;20067;-87
2024/04/14 07:59:01;;;;;;;7.07;1.95;;;;;;;16.54;nan;100881.25;4741663;30;20091;-88
2024/04/14 08:01:28;;;;;;;3.65;1.63;;;;;;;16.80;nan;100880.19;4741594;30;20070;-87
2024/04/14 08:03:54;;;;;;;2.28;1.25;;;;;;;16.65;nan;100892.34;4747629;29;20055;-89
2024/04/14 08:06:21;;;;;;;3.10;1.42;;;;;;;16.98;nan;100881.19;4799523;29;20047;-89
2024/04/14 08:08:47;;;;;;;2.75;1.10;;;;;;;17.29;nan;100881.56;4785849;30;20132;-87
2024/04/14 08:11:13;;;;;;;4.07;1.13;;;;;;;17.53;nan;100894.78;4760428;30;20059;-88
2024/04/14 08:13:39;;;;;;;2.85;1.65;;;;;;;17.36;nan;100898.19;4745637;30;20058;-89
2024/04/14 08:16:06;;;;;;;2.42;1.02;;;;;;;17.10;nan;100889.53;4751589;30;20047;-89
2024/04/14 08:18:32;;;;;;;3.78;1.63;;;;;;;17.20;nan;100895.34;4752317;30;20561;-89
2024/04/14 08:20:59;;;;;;;2.08;0.90;;;;;;;17.00;nan;100903.38;4768319;30;20592;-88
2024/04/14 08:23:34;;;;;;;2.33;1.00;;;;;;;17.26;nan;100908.44;4738347;30;20092;-89
2024/04/14 08:26:08;;;;;;;1.48;1.05;;;;;;;16.91;nan;100922.44;4779942;30;20047;-87
2024/04/14 08:28:34;;;;;;;4.45;0.88;;;;;;;17.13;nan;100908.09;4711207;30;20056;-87
2024/04/14 08:31:00;;;;;;;1.50;0.80;;;;;;;17.35;nan;100917.84;4737491;30;20538;-87
2024/04/14 08:33:26;;;;;;;6.78;1.73;;;;;;;17.26;nan;100911.09;4786082;29;20200;-87
2024/04/14 08:35:52;;;;;;;2.38;1.02;;;;;;;16.75;nan;100924.88;4771639;30;20051;-86
2024/04/14 08:38:18;;;;;;;3.97;1.00;;;;;;;17.50;nan;100921.63;4737923;30;20113;-87
2024/04/14 08:40:54;;;;;;;32.15;3.30;;;;;;;17.78;nan;100924.81;4759194;30;20059;-87
2024/04/14 08:43:23;;;;;;;2.65;1.08;;;;;;;17.40;nan;100922.03;4753273;30;20062;-87
2024/04/14 08:45:54;;;;;;;3.22;0.90;;;;;;;17.09;nan;100929.66;4770211;30;20122;-87
2024/04/14 08:48:20;;;;;;;2.95;1.00;;;;;;;17.03;nan;100935.25;4778709;29;20054;-87
2024/04/14 08:50:47;;;;;;;21.92;4.00;;;;;;;16.86;nan;100936.84;4767733;29;20509;-88
2024/04/14 08:53:16;;;;;;;6.28;1.50;;;;;;;16.73;nan;100940.97;4740580;30;20625;-87
2024/04/14 08:55:43;;;;;;;24.15;3.75;;;;;;;17.06;nan;100948.44;4780322;29;20151;-88
2024/04/14 08:58:09;;;;;;;3.33;1.33;;;;;;;17.07;nan;100943.06;4754876;30;20063;-86
2024/04/14 09:00:37;;;;;;;1.77;1.20;;;;;;;17.22;nan;100952.19;4755309;30;20066;-87
2024/04/14 09:03:05;;;;;;;3.75;1.67;;;;;;;17.61;nan;100952.25;4743161;30;20521;-87
2024/04/14 09:05:34;;;;;;;2.85;1.20;;;;;;;17.50;nan;100969.72;4742127;30;20067;-87
2024/04/14 09:08:01;;;;;;;3.70;1.60;;;;;;;17.90;nan;100947.41;4758799;30;20071;-88
2024/04/14 09:10:27;;;;;;;12.32;8.13;;;;;;;17.76;nan;100948.06;4762431;29;20116;-87
2024/04/14 09:12:54;;;;;;;19.75;13.38;;;;;;;18.05;nan;100957.41;4759598;30;20089;-86
2024/04/14 09:15:21;;;;;;;8.10;6.10;;;;;;;17.81;nan;100975.44;4768795;29;20065;-87
2024/04/14 09:17:49;;;;;;;13.82;12.82;;;;;;;17.55;nan;100946.31;4758810;30;20155;-87
2024/04/14 09:20:16;;;;;;;3.97;2.83;;;;;;;17.65;nan;100947.63;4759759;30;20532;-86
2024/04/14 09:22:44;;;;;;;10.00;9.10;;;;;;;17.95;nan;100956.97;4742805;30;20054;-87
2024/04/14 09:25:11;;;;;;;3.88;2.35;;;;;;;17.48;nan;100960.88;4745696;30;20406;-88
2024/04/14 09:27:38;;;;;;;9.05;8.00;;;;;;;17.85;nan;100965.50;4745001;30;20062;-87
2024/04/14 09:30:18;;;;;;;4.15;2.03;;;;;;;17.86;nan;100956.53;4766685;30;20100;-86
2024/04/14 09:32:45;;;;;;;1.85;1.02;;;;;;;18.06;nan;100971.63;4770067;30;20156;-87
2024/04/14 09:35:12;;;;;;;5.72;1.92;;;;;;;18.02;nan;100967.38;4753259;30;20105;-87
2024/04/14 09:37:39;;;;;;;3.53;3.13;;;;;;;17.96;nan;100984.56;4761080;30;20063;-87
2024/04/14 09:40:09;;;;;;;4.68;1.70;;;;;;;17.55;nan;100973.91;4762420;30;20051;-88
2024/04/14 09:42:35;;;;;;;2.42;1.27;;;;;;;17.47;nan;100985.84;4785533;30;20058;-88
2024/04/14 09:45:05;;;;;;;3.47;1.35;;;;;;;17.29;nan;101001.75;4772428;30;20085;-88
2024/04/14 09:47:32;;;;;;;4.65;1.00;;;;;;;17.04;nan;100996.56;4782785;29;20063;-85
2024/04/14 09:49:59;;;;;;;3.28;1.70;;;;;;;17.61;nan;100988.78;4779687;30;20059;-87
2024/04/14 09:52:25;;;;;;;2.45;0.90;;;;;;;17.30;nan;100994.59;4777031;30;20078;-88
2024/04/14 09:54:53;;;;;;;2.30;1.05;;;;;;;17.77;nan;100997.03;4760712;29;20050;-88
2024/04/14 09:57:21;;;;;;;2.40;1.38;;;;;;;17.89;nan;100989.31;4765304;30;20537;-87
2024/04/14 09:59:47;;;;;;;2.70;1.13;;;;;;;17.68;nan;101006.31;4748059;30;20051;-88
2024/04/14 10:02:21;;;;;;;1.50;0.90;;;;;;;17.50;nan;101001.78;4760683;29;20101;-87
2024/04/14 10:04:48;;;;;;;2.80;1.33;;;;;;;17.64;nan;100994.00;4775422;30;20060;-87
2024/04/14 10:07:15;;;;;;;2.22;1.10;;;;;;;17.58;nan;101005.84;4747432;29;20086;-87
2024/04/14 10:09:48;;;;;;;2.53;1.00;;;;;;;17.84;nan;101018.06;4758783;30;20059;-87
2024/04/14 10:12:18;;;;;;;2.75;1.50;;;;;;;17.27;nan;101006.28;4761923;29;20055;-87
2024/04/14 10:14:45;;;;;;;1.98;1.02;;;;;;;17.05;nan;101000.97;4780379;30;20150;-87
2024/04/14 10:17:12;;;;;;;4.25;1.10;;;;;;;17.19;nan;100997.75;4753684;30;20518;-88
2024/04/14 10:19:38;;;;;;;2.85;1.20;;;;;;;16.85;nan;101023.16;4757887;30;20111;-87
2024/04/14 10:22:11;;;;;;;2.78;1.20;;;;;;;17.17;nan;101005.81;4785915;30;20063;-87
2024/04/14 10:24:48;;;;;;;2.15;1.35;;;;;;;17.11;nan;101011.41;4731764;29;20055;-88
2024/04/14 10:27:14;;;;;;;2.47;1.45;;;;;;;17.49;nan;100997.34;4784692;29;20067;-88
2024/04/14 10:29:40;;;;;;;2.10;1.15;;;;;;;17.63;nan;101013.63;4774908;30;20051;-87
2024/04/14 10:32:13;;;;;;;2.08;1.00;;;;;;;17.80;nan;101011.13;4747888;30;20075;-88
2024/04/14 10:34:39;;;;;;;2.42;1.00;;;;;;;17.37;nan;101006.75;4743117;29;20132;-87
2024/04/14 10:37:05;;;;;;;4.15;1.42;;;;;;;17.38;nan;101003.16;4733400;30;20059;-87
2024/04/14 10:39:31;;;;;;;4.75;1.60;;;;;;;17.86;nan;100999.28;4746655;30;20063;-87
2024/04/14 10:41:58;;;;;;;2.70;1.27;;;;;;;17.90;nan;100990.19;4751432;30;20120;-88
2024/04/14 10:44:24;;;;;;;2.95;1.27;;;;;;;18.13;nan;100997.16;4777910;30;20047;-87
2024/04/14 10:46:51;;;;;;;2.85;1.40;;;;;;;18.04;nan;101002.94;4767378;30;20078;-87
2024/04/14 10:49:19;;;;;;;2.55;1.30;;;;;;;18.18;nan;100995.16;4744984;30;20150;-86
2024/04/14 10:51:45;;;;;;;4.50;1.30;;;;;;;18.28;nan;100999.13;4731536;30;20402;-87
2024/04/14 10:54:11;;;;;;;11.70;2.03;;;;;;;18.45;nan;101007.22;4757768;30;20066;-87
2024/04/14 10:56:37;;;;;;;3.22;1.45;;;;;;;18.53;nan;101006.84;4774047;30;20070;-87
2024/04/14 10:59:03;;;;;;;4.72;1.65;;;;;;;18.44;nan;101000.13;4803323;29;20216;-88
2024/04/14 11:01:30;;;;;;;3.05;1.45;;;;;;;18.36;nan;101021.03;4769366;30;20055;-87
2024/04/14 11:03:56;;;;;;;3.95;1.10;;;;;;;18.39;nan;101006.63;4778917;30;20297;-88
2024/04/14 11:06:22;;;;;;;4.38;1.00;;;;;;;18.81;nan;101001.91;4768097;30;20052;-88
2024/04/14 11:08:49;;;;;;;3.25;1.15;;;;;;;18.87;nan;101003.44;4789674;29;20058;-89
2024/04/14 11:11:15;;;;;;;3.97;1.50;;;;;;;18.83;nan;100991.13;4773687;30;20065;-89
2024/04/14 11:13:42;;;;;;;2.80;0.90;;;;;;;18.88;nan;100981.06;4766798;30;20501;-87
2024/04/14 11:16:09;;;;;;;9.20;1.52;;;;;;;18.86;nan;100985.63;4789899;29;20570;-89
2024/04/14 11:18:35;;;;;;;7.13;1.75;;;;;;;18.95;nan;100977.16;4763371;30;20128;-87
2024/04/14 11:21:01;;;;;;;92.10;10.27;;;;;;;18.17;nan;100964.88;4759235;30;20070;-87
2024/04/14 11:23:27;;;;;;;1.73;0.80;;;;;;;18.25;nan;100997.47;4745713;30;20063;-87
2024/04/14 11:25:54;;;;;;;2.13;1.25;;;;;;;17.90;nan;100998.19;4741630;30;20139;-87
2024/04/14 11:28:20;;;;;;;2.45;1.30;;;;;;;18.33;nan;100981.06;4773311;30;20063;-87
2024/04/14 11:30:47;;;;;;;3.17;1.20;;;;;;;18.34;nan;100998.84;4769464;29;20335;-87
2024/04/14 11:33:13;;;;;;;2.05;1.17;;;;;;;18.30;nan;101005.25;4768617;30;20091;-87
2024/04/14 11:35:39;;;;;;;2.25;1.50;;;;;;;18.42;nan;100994.00;4782357;29;20047;-88
2024/04/14 11:38:06;;;;;;;1.70;0.70;;;;;;;18.26;nan;100993.84;4743498;30;20059;-87
2024/04/14 11:40:32;;;;;;;3.38;1.38;;;;;;;18.60;nan;100984.22;4757524;30;20074;-87
2024/04/14 11:42:58;;;;;;;1.65;0.80;;;;;;;18.70;nan;100992.69;4743414;30;20066;-87
2024/04/14 11:45:24;;;;;;;1.95;0.93;;;;;;;19.09;nan;100985.34;4758275;30;20063;-87
2024/04/14 11:47:50;;;;;;;2.67;0.82;;;;;;;19.02;nan;100981.25;4743225;30;20055;-87
2024/04/14 11:50:16;;;;;;;2.28;0.90;;;;;;;19.34;nan;100979.63;4743309;30;20116;-88
2024/04/14 11:52:42;;;;;;;3.20;1.10;;;;;;;19.36;nan;100983.06;4771438;30;20112;-88
2024/04/14 11:55:09;;;;;;;3.83;0.80;;;;;;;19.05;nan;100973.06;4758703;30;20426;-87
2024/04/14 11:57:35;;;;;;;3.83;1.00;;;;;;;19.22;nan;100976.69;4772618;30;20066;-87
2024/04/14 12:00:03;;;;;;;2.13;1.05;;;;;;;19.21;nan;100974.94;4786803;29;20437;-87
2024/04/14 12:02:29;;;;;;;5.50;0.90;;;;;;;18.74;nan;100984.41;4757862;30;20590;-88
2024/04/14 12:04:55;;;;;;;1.65;0.95;;;;;;;18.79;nan;100992.22;4742810;30;20048;-88
2024/04/14 12:07:21;;;;;;;1.80;0.90;;;;;;;18.27;nan;100970.63;4769240;30;20125;-87
2024/04/14 12:09:47;;;;;;;6.65;1.48;;;;;;;17.77;nan;100984.53;4731024;30;20066;-89
2024/04/14 12:12:15;;;;;;;4.85;1.58;;;;;;;18.18;nan;100974.63;4764377;30;20102;-88
2024/04/14 12:14:55;;;;;;;2.30;0.90;;;;;;;18.59;nan;100973.59;4745831;30;20062;-87
2024/04/14 12:17:24;;;;;;;2.63;1.07;;;;;;;18.78;nan;100961.06;4758111;30;20059;-87
2024/04/14 12:19:50;;;;;;;3.10;1.00;;;;;;;18.65;nan;100973.25;4756171;30;20086;-86
2024/04/14 12:22:17;;;;;;;3.13;1.08;;;;;;;18.62;nan;100968.94;4756130;30;20066;-87
2024/04/14 12:24:43;;;;;;;2.15;0.90;;;;;;;18.91;nan;100963.97;4740928;30;20134;-88
2024/04/14 12:27:09;;;;;;;8.43;1.63;;;;;;;19.03;nan;100960.69;4756497;30;20151;-87
2024/04/14 12:29:35;;;;;;;2.40;0.85;;;;;;;19.02;nan;100953.59;4728110;30;20059;-87
2024/04/14 12:32:02;;;;;;;44.20;6.00;;;;;;;18.63;nan;100962.63;4726471;30;20059;-88
2024/04/14 12:34:28;;;;;;;2.03;0.98;;;;;;;18.97;nan;100953.81;4764647;29;20113;-87
2024/04/14 12:36:54;;;;;;;4.28;1.50;;;;;;;18.68;nan;100954.44;4751033;30;20082;-88
2024/04/14 12:39:20;;;;;;;2.42;1.00;;;;;;;18.56;nan;100961.19;4758353;30;20055;-88
2024/04/14 12:41:46;;;;;;;1.95;0.90;;;;;;;18.82;nan;100949.25;4744325;29;20116;-87
2024/04/14 12:44:12;;;;;;;5.15;1.25;;;;;;;18.78;nan;100953.03;4771569;29;20066;-88
2024/04/14 12:46:38;;;;;;;3.40;1.13;;;;;;;18.81;nan;100967.13;4753510;30;20047;-88
2024/04/14 12:49:04;;;;;;;2.00;1.08;;;;;;;18.74;nan;100957.66;4758898;30;20139;-87
2024/04/14 12:51:30;;;;;;;2.55;1.00;;;;;;;18.30;nan;100954.44;4735422;30;20067;-89
2024/04/14 12:53:57;;;;;;;1.75;0.85;;;;;;;18.25;nan;100961.84;4799600;29;20087;-88
2024/04/14 12:56:25;;;;;;;2.17;0.90;;;;;;;18.38;nan;100936.22;4775501;30;20062;-88
2024/04/14 12:58:52;;;;;;;2.63;1.05;;;;;;;18.53;nan;100940.81;4770579;30;20059;-87
2024/04/14 13:01:18;;;;;;;3.42;1.17;;;;;;;17.94;nan;100941.88;4741021;30;20070;-88
2024/04/14 13:03:44;;;;;;;2.95;1.38;;;;;;;18.24;nan;100939.56;4769864;30;20052;-87
2024/04/14 13:06:10;;;;;;;6.68;1.52;;;;;;;18.08;nan;100954.59;4740180;30;20055;-88
2024/04/14 13:08:36;;;;;;;2.22;1.20;;;;;;;18.12;nan;100947.28;4767673;29;20131;-88
2024/04/14 13:52:04;;;;;;;4.63;0.90;;;;;;;18.50;nan;100932.09;4790922;29;20085;-93
2024/04/14 13:56:39;;;;;;;2.75;0.90;;;;;;;18.56;nan;100913.91;4768109;30;20078;-91
2024/04/14 14:01:01;;;;;;;2.60;1.17;;;;;;;18.53;nan;100926.56;4749934;30;20059;-92
2024/04/14 14:03:30;;;;;;;3.45;1.35;;;;;;;18.67;nan;100924.13;4755108;29;20345;-92
2024/04/14 14:05:56;;;;;;;2.63;0.85;;;;;;;18.45;nan;100923.41;4772306;30;20100;-92
2024/04/14 14:08:22;;;;;;;2.22;1.20;;;;;;;18.54;nan;100922.97;4787180;30;20063;-91
2024/04/14 14:10:48;;;;;;;2.80;0.90;;;;;;;18.51;nan;100913.28;4776374;29;20116;-93
2024/04/14 14:13:14;;;;;;;1.73;1.00;;;;;;;18.71;nan;100920.34;4799939;29;20141;-92
2024/04/14 14:15:40;;;;;;;3.03;1.35;;;;;;;18.26;nan;100915.41;4807617;29;20054;-92
2024/04/14 14:18:07;;;;;;;3.75;0.85;;;;;;;18.48;nan;100918.75;4792839;29;20465;-92
2024/04/14 14:20:33;;;;;;;3.63;0.90;;;;;;;18.50;nan;100908.88;4793232;29;20436;-93
2024/04/14 14:23:00;;;;;;;5.00;1.00;;;;;;;18.67;nan;100901.84;4810661;29;20039;-91
2024/04/14 14:25:27;;;;;;;4.25;1.42;;;;;;;18.28;nan;100914.41;4818376;29;20060;-91
2024/04/14 14:27:53;;;;;;;3.30;1.40;;;;;;;17.72;nan;100893.88;4783647;29;20050;-92
2024/04/14 14:30:20;;;;;;;3.25;0.90;;;;;;;17.92;nan;100897.44;4774668;29;20055;-91
2024/04/14 14:32:46;;;;;;;4.22;1.40;;;;;;;18.09;nan;100900.19;4779207;29;20062;-91
2024/04/14 14:37:57;;;;;;;1.48;1.20;;;;;;;18.23;nan;100896.81;4805991;29;20415;-92
2024/04/14 14:40:24;;;;;;;3.35;1.02;;;;;;;18.37;nan;100907.72;4776255;29;20063;-92
2024/04/14 14:42:52;;;;;;;2.33;1.13;;;;;;;18.42;nan;100902.16;4776083;29;20050;-91
2024/04/14 14:45:28;;;;;;;3.05;1.10;;;;;;;18.20;nan;100900.53;4791715;29;20051;-91
2024/04/14 14:47:54;;;;;;;3.42;1.10;;;;;;;17.73;nan;100894.75;4798094;29;20050;-93
2024/04/14 14:50:21;;;;;;;4.95;3.50;;;;;;;17.92;nan;100903.66;4809155;29;20555;-93
2024/04/14 14:52:47;;;;;;;9.30;1.30;;;;;;;18.01;nan;100902.34;4809507;29;20046;-92
2024/04/14 14:55:13;;;;;;;2.80;1.10;;;;;;;18.07;nan;100909.19;4825083;29;20050;-92
2024/04/14 14:57:59;;;;;;;6.88;2.10;;;;;;;17.81;nan;100895.25;4808797;29;20042;-92
2024/04/14 15:00:28;;;;;;;5.70;1.20;;;;;;;17.94;nan;100912.47;4819169;29;20505;-92
2024/04/14 15:02:55;;;;;;;2.58;1.42;;;;;;;17.81;nan;100910.41;4794345;29;20087;-92
2024/04/14 15:05:45;;;;;;;2.80;1.40;;;;;;;18.05;nan;100921.78;4821418;29;20456;-92
2024/04/14 15:08:12;;;;;;;3.95;1.13;;;;;;;17.91;nan;100912.63;4822105;29;20061;-91
2024/04/14 15:10:50;;;;;;;2.13;0.98;;;;;;;17.43;nan;100929.91;4798497;29;20070;-91
2024/04/14 15:13:17;;;;;;;2.97;1.35;;;;;;;17.09;nan;100918.97;4802001;29;20068;-92
2024/04/14 15:16:05;;;;;;;2.60;1.02;;;;;;;17.42;nan;100913.97;4810109;29;20050;-92
2024/04/14 15:18:31;;;;;;;4.90;1.50;;;;;;;17.53;nan;100908.13;4789153;29;20473;-92
2024/04/14 15:20:57;;;;;;;3.88;1.08;;;;;;;17.61;nan;100909.50;4790346;29;20051;-92
2024/04/14 15:23:24;;;;;;;2.90;1.58;;;;;;;17.55;nan;100914.25;4771589;30;20423;-92
2024/04/14 15:25:51;;;;;;;3.88;1.23;;;;;;;17.54;nan;100907.19;4770701;30;20157;-92
2024/04/14 15:28:17;;;;;;;2.78;1.00;;;;;;;17.39;nan;100909.59;4800264;29;20713;-92
2024/04/14 15:30:44;;;;;;;11.55;1.90;;;;;;;17.51;nan;100916.22;4792032;29;20058;-91
2024/04/14 15:33:10;;;;;;;3.30;1.45;;;;;;;17.38;nan;100921.22;4804871;29;20055;-93
2024/04/14 15:35:36;;;;;;;3.45;1.80;;;;;;;17.38;nan;100929.25;4806805;29;20050;-93
2024/04/14 15:38:02;;;;;;;4.82;1.10;;;;;;;17.39;nan;100927.44;4796289;29;20071;-92
2024/04/14 15:40:31;;;;;;;4.35;1.50;;;;;;;17.39;nan;100924.75;4806400;29;20623;-93
2024/04/14 15:42:57;;;;;;;4.50;1.63;;;;;;;16.93;nan;100920.56;4806051;29;20512;-93
2024/04/14 15:45:23;;;;;;;2.53;1.13;;;;;;;17.15;nan;100924.03;4776722;29;20062;-93
2024/04/14 15:47:53;;;;;;;3.70;1.40;;;;;;;17.18;nan;100929.25;4807151;29;20106;-92
2024/04/14 16:43:28;;;;;;;3.17;1.20;;;;;;;15.09;40.68;100908.97;5325015;27;20236;-92
2024/04/14 16:46:01;;;;;;;1.77;1.38;;;;;;;15.01;40.60;100913.69;5331764;26;20065;-93
2024/04/14 16:48:29;;;;;;;4.85;1.40;;;;;;;15.09;41.76;100921.41;5331691;26;20015;-93
2024/04/14 16:50:57;;;;;;;5.93;1.63;;;;;;;15.05;40.54;100920.69;5409275;26;20468;-93
2024/04/14 16:53:24;;;;;;;3.10;1.65;;;;;;;15.02;39.84;100925.22;5379688;26;19999;-92
2024/04/14 16:55:52;;;;;;;4.40;1.40;;;;;;;15.00;40.32;100911.97;5408921;26;19999;-94
2024/04/14 16:58:19;;;;;;;4.25;1.35;;;;;;;14.83;40.42;100922.31;5406878;26;20304;-93
2024/04/14 17:00:47;;;;;;;3.88;1.42;;;;;;;14.72;40.20;100922.69;5407425;26;19999;-93
2024/04/14 17:03:14;;;;;;;2.67;1.23;;;;;;;14.71;40.75;100928.03;5394472;26;20698;-93
2024/04/14 17:05:43;;;;;;;5.55;1.40;;;;;;;14.56;39.93;100919.66;5391196;26;20006;-93
2024/04/14 17:08:11;;;;;;;3.63;1.30;;;;;;;14.53;39.88;100916.22;5362310;26;20083;-93
2024/04/14 17:10:38;;;;;;;2.42;1.08;;;;;;;14.49;39.62;100910.16;5390312;26;20006;-94
2024/04/14 17:13:06;;;;;;;3.17;1.00;;;;;;;14.42;40.84;100915.66;5391050;26;20572;-93
2024/04/14 17:15:35;;;;;;;4.03;1.05;;;;;;;14.28;39.92;100910.78;5390866;26;20002;-92
2024/04/14 17:18:03;;;;;;;2.70;1.10;;;;;;;14.24;40.66;100914.47;5420188;26;20331;-92
2024/04/14 17:20:32;;;;;;;4.05;1.10;;;;;;;14.18;40.47;100912.88;5420208;26;19995;-93
2024/04/14 17:22:59;;;;;;;2.58;1.45;;;;;;;14.17;40.37;100911.13;5361522;26;20072;-93
2024/04/14 17:25:26;;;;;;;1.65;0.93;;;;;;;14.16;40.98;100919.16;5390927;26;20014;-93
2024/04/14 17:27:54;;;;;;;29.35;3.75;;;;;;;14.07;40.79;100907.91;5450833;26;20014;-93
2024/04/14 17:30:22;;;;;;;3.05;1.20;;;;;;;13.96;41.19;100910.03;5398288;26;20338;-93
2024/04/14 17:32:49;;;;;;;2.65;1.38;;;;;;;13.80;40.27;100901.63;5428420;26;20005;-93
2024/04/14 17:35:17;;;;;;;3.45;1.13;;;;;;;13.85;41.16;100908.59;5428343;26;19994;-91
2024/04/14 17:37:45;;;;;;;3.58;1.30;;;;;;;13.77;41.02;100920.31;5463208;26;20006;-94
2024/04/14 17:40:14;;;;;;;2.05;0.85;;;;;;;13.66;41.59;100913.56;5458834;26;20004;-93
2024/04/14 17:42:41;;;;;;;4.05;1.30;;;;;;;13.68;41.18;100923.22;5459661;26;20006;-93
2024/04/14 17:45:11;;;;;;;4.05;1.50;;;;;;;13.72;41.15;100924.03;5458383;26;19990;-94
2024/04/14 17:47:41;;;;;;;2.35;1.20;;;;;;;13.61;42.42;100913.69;5499276;26;20005;-95
2024/04/14 17:50:09;;;;;;;3.47;1.30;;;;;;;13.60;42.01;100917.28;5428737;26;20001;-94
2024/04/14 17:52:38;;;;;;;4.05;1.23;;;;;;;13.57;41.96;100912.06;5399990;26;20002;-94
2024/04/14 17:55:06;;;;;;;3.35;1.13;;;;;;;13.56;43.04;100914.75;5458393;26;20004;-93
2024/04/14 17:57:34;;;;;;;2.63;1.48;;;;;;;13.43;43.41;100909.78;5430484;26;20074;-94
2024/04/14 18:00:02;;;;;;;2.38;1.00;;;;;;;13.42;42.50;100909.84;5399143;26;20010;-93
2024/04/14 18:02:30;;;;;;;1.55;1.20;;;;;;;13.35;42.60;100910.91;5458898;26;20364;-93
2024/04/14 18:04:58;;;;;;;5.10;2.15;;;;;;;13.29;44.04;100919.06;5459471;26;20014;-94
2024/04/14 18:07:25;;;;;;;4.68;1.70;;;;;;;13.23;41.93;100910.34;5428665;26;19998;-94
2024/04/14 18:09:53;;;;;;;4.80;1.45;;;;;;;13.04;43.82;100916.19;5427555;26;19994;-94
2024/04/14 18:12:21;;;;;;;2.17;1.00;;;;;;;13.10;42.87;100919.50;5457552;26;20013;-94
2024/04/14 18:14:52;;;;;;;3.92;1.45;;;;;;;13.15;42.47;100919.41;5458129;26;19994;-94
2024/04/14 18:17:35;;;;;;;3.72;1.00;;;;;;;12.95;43.35;100911.97;5399210;26;20022;-93
2024/04/14 18:20:03;;;;;;;2.23;1.20;;;;;;;12.86;43.22;100918.41;5458085;26;20498;-94
2024/04/14 18:22:31;;;;;;;5.93;1.90;;;;;;;12.92;43.97;100930.59;5458915;26;20002;-95
2024/04/14 18:24:59;;;;;;;11.77;3.08;;;;;;;12.76;44.44;100937.19;5459508;26;20006;-94
2024/04/14 18:27:31;;;;;;;3.55;1.33;;;;;;;12.74;43.77;100931.06;5430025;26;20005;-94
2024/04/14 18:30:12;;;;;;;2.53;0.93;;;;;;;12.68;43.88;100938.25;5492012;26;20396;-93
2024/04/14 18:32:46;;;;;;;3.08;1.08;;;;;;;12.51;43.89;100931.63;5399840;26;20403;-94
2024/04/14 18:35:13;;;;;;;3.03;1.75;;;;;;;12.52;45.38;100943.97;5459194;26;20013;-94
2024/04/14 18:37:41;;;;;;;2.42;1.05;;;;;;;12.36;45.74;100935.53;5457780;26;20002;-95
2024/04/14 18:40:10;;;;;;;2.28;1.00;;;;;;;12.33;45.82;100941.75;5458642;26;19995;-94
2024/04/14 18:42:39;;;;;;;2.38;0.90;;;;;;;12.44;45.13;100940.63;5494704;26;20044;-95
2024/04/14 18:45:07;;;;;;;3.58;1.45;;;;;;;12.16;46.43;100940.41;5461124;26;20018;-94
2024/04/14 18:47:35;;;;;;;4.38;1.10;;;;;;;12.01;46.74;100933.66;5457231;26;20005;-93
2024/04/14 18:50:03;;;;;;;3.88;1.20;;;;;;;12.11;47.06;100945.81;5457390;26;19998;-94
2024/04/14 18:52:31;;;;;;;4.43;1.20;;;;;;;11.96;47.09;100943.50;5464912;26;19990;-94
2024/04/14 18:54:59;;;;;;;5.00;1.23;;;;;;;11.84;47.19;100937.53;5481030;26;19990;-94
2024/04/14 18:57:32;;;;;;;3.63;1.35;;;;;;;11.70;47.35;100941.38;5483001;26;20001;-93
2024/04/14 19:00:00;;;;;;;3.08;1.10;;;;;;;11.37;48.15;100937.63;5480713;26;19998;-93
2024/04/14 19:02:27;;;;;;;2.53;0.90;;;;;;;11.40;48.20;100941.06;5431159;26;20002;-93
2024/04/14 19:04:59;;;;;;;4.10;1.10;;;;;;;11.34;48.88;100943.81;5429556;26;20038;-94
2024/04/14 19:07:30;;;;;;;3.88;1.58;;;;;;;11.17;48.89;100941.50;5494615;26;20002;-93
2024/04/14 19:09:59;;;;;;;2.88;1.38;;;;;;;10.87;50.22;100947.34;5459608;26;19994;-94
2024/04/14 19:12:28;;;;;;;5.30;1.52;;;;;;;10.91;49.91;100939.31;5459391;26;20017;-94
2024/04/14 19:14:55;;;;;;;3.15;1.25;;;;;;;10.66;51.44;100932.69;5457005;26;20042;-94
2024/04/14 19:17:26;;;;;;;8.40;4.50;;;;;;;10.70;51.90;100937.94;5427236;26;20002;-93
2024/04/14 19:19:54;;;;;;;7.05;3.08;;;;;;;10.40;52.64;100925.19;5426238;26;20015;-93
2024/04/14 19:22:22;;;;;;;3.90;2.60;;;;;;;10.40;52.90;100923.44;5425923;26;20021;-93
2024/04/14 19:24:49;;;;;;;4.75;1.92;;;;;;;10.30;53.28;100920.97;5454807;26;19998;-93
2024/04/14 19:27:17;;;;;;;3.60;1.80;;;;;;;10.31;53.49;100917.41;5424471;26;20365;-93
2024/04/14 19:29:45;;;;;;;3.15;1.83;;;;;;;10.26;53.96;100914.88;5454562;26;20002;-93
2024/04/14 19:32:12;;;;;;;3.67;1.55;;;;;;;10.22;54.38;100917.53;5453864;26;20459;-94
2024/04/14 19:34:40;;;;;;;7.85;1.83;;;;;;;10.06;54.45;100912.47;5454642;26;20054;-93
2024/04/14 19:37:07;;;;;;;3.10;1.30;;;;;;;9.92;55.52;100911.81;5455643;26;20070;-93
2024/04/14 19:39:37;;;;;;;5.32;1.75;;;;;;;9.94;55.77;100914.41;5455381;26;20006;-94
2024/04/14 19:42:05;;;;;;;2.72;1.20;;;;;;;9.81;55.92;100918.97;5423562;26;20006;-92
2024/04/14 19:44:32;;;;;;;2.78;1.55;;;;;;;9.80;55.92;100904.03;5426155;26;20032;-94
2024/04/14 19:47:00;;;;;;;5.00;1.27;;;;;;;9.67;56.36;100905.06;5455705;26;20435;-93
2024/04/14 19:49:27;;;;;;;2.42;1.27;;;;;;;9.68;56.48;100901.56;5455424;26;20463;-92
2024/04/14 19:51:55;;;;;;;3.38;1.20;;;;;;;9.72;56.48;100898.00;5486779;26;20449;-93
2024/04/14 19:54:22;;;;;;;4.22;1.25;;;;;;;9.58;56.80;100891.16;5425480;26;20026;-93
2024/04/14 19:56:50;;;;;;;2.95;1.55;;;;;;;9.66;56.69;100898.06;5425299;26;20028;-93
2024/04/14 19:59:17;;;;;;;4.18;1.20;;;;;;;9.59;56.65;100899.94;5395829;26;20010;-92
2024/04/14 20:01:44;;;;;;;7.13;1.75;;;;;;;9.33;57.34;100905.50;5424972;26;19998;-93
2024/04/14 20:04:12;;;;;;;2.55;1.27;;;;;;;9.21;57.21;100895.97;5455571;26;20010;-92
2024/04/14 20:06:40;;;;;;;3.22;1.13;;;;;;;9.16;57.96;100894.25;5424581;26;19998;-93
2024/04/14 20:09:07;;;;;;;2.58;1.00;;;;;;;9.05;58.39;100888.25;5425190;26;20002;-93
2024/04/14 20:11:37;;;;;;;2.07;1.00;;;;;;;9.16;58.77;100881.94;5427331;26;20120;-93
2024/04/14 20:14:12;;;;;;;3.00;1.10;;;;;;;9.20;58.10;100883.69;5425892;26;20002;-93
2024/04/14 20:18:06;;;;;;;3.33;1.63;;;;;;;9.19;58.07;100881.94;5456517;26;20354;-93
2024/04/14 20:20:30;;;;;;;2.57;1.20;;;;;;;8.97;58.60;100891.81;5413171;26;19994;-92
2024/04/14 20:23:01;;;;;;;3.53;1.20;;;;;;;8.99;58.44;100889.16;5427677;26;20009;-92
2024/04/14 20:25:29;;;;;;;2.70;0.93;;;;;;;8.71;59.41;100888.56;5424865;26;20001;-92
2024/04/14 20:27:56;;;;;;;2.43;1.10;;;;;;;8.56;59.88;100893.97;5425492;26;20009;-92
2024/04/14 20:30:24;;;;;;;2.70;1.47;;;;;;;8.68;59.54;100888.63;5395412;26;20013;-91
2024/04/14 20:32:51;;;;;;;2.83;1.53;;;;;;;8.41;60.11;100882.69;5395318;26;20054;-91
2024/04/14 20:35:19;;;;;;;1.83;1.17;;;;;;;8.54;59.86;100875.56;5424066;26;20448;-92
2024/04/14 20:37:50;;;;;;;6.53;1.40;;;;;;;8.43;59.75;100870.41;5398276;26;20006;-92
2024/04/14 20:40:18;;;;;;;3.73;1.47;;;;;;;8.34;59.63;100872.19;5428167;26;20017;-91